Ratcliff, Arkansas
Current Conditions -  °F | °C
As of 9:05 AM on Thursday 18 Dec 2014 (Local Time) from KFSM Reporting Station
Haze Haze  
Wind Chill: 29°   Ceiling: 600
Heat Index: 37°   Visibility: 6mi
Dew Point: 35°   Wind: 12mph
Humidity: 93%   Direction: 80°E
Pressure: 30.23"   Gusts: NA
Location:  35.31°N, 93.88°W
Report Text: KFSM 181505Z 08010KT 6SM BR OVC006 03/02 A3023 RMK AO2 T00280017
Loading
Personal Weather Stations






























Interactive Weather Map New forecast layout! Learn more

10-Day Weather Forecast

Advertisements
Track Severe Weather on mobile